sensor_id;sensor_type;location;lat;lon;timestamp;P1;durP1;ratioP1;P2;durP2;ratioP2
70505;SDS011;58032;49.820;6.274;2022-08-30T00:00:48;6.30;;;0.98;;
70505;SDS011;58032;49.820;6.274;2022-08-30T00:03:36;4.57;;;1.48;;
70505;SDS011;58032;49.820;6.274;2022-08-30T00:06:07;3.05;;;0.75;;
70505;SDS011;58032;49.820;6.274;2022-08-30T00:08:35;4.85;;;1.02;;
70505;SDS011;58032;49.820;6.274;2022-08-30T00:11:04;4.73;;;1.30;;
70505;SDS011;58032;49.820;6.274;2022-08-30T00:13:36;4.30;;;1.23;;
70505;SDS011;58032;49.820;6.274;2022-08-30T00:16:04;4.82;;;1.40;;
70505;SDS011;58032;49.820;6.274;2022-08-30T00:18:32;5.20;;;1.25;;
70505;SDS011;58032;49.820;6.274;2022-08-30T00:21:01;5.60;;;1.10;;
70505;SDS011;58032;49.820;6.274;2022-08-30T00:23:30;3.63;;;1.20;;
70505;SDS011;58032;49.820;6.274;2022-08-30T00:25:58;3.60;;;1.10;;
70505;SDS011;58032;49.820;6.274;2022-08-30T00:28:25;5.00;;;1.23;;
70505;SDS011;58032;49.820;6.274;2022-08-30T00:30:52;6.80;;;1.40;;
70505;SDS011;58032;49.820;6.274;2022-08-30T00:33:20;3.38;;;1.00;;
70505;SDS011;58032;49.820;6.274;2022-08-30T00:35:47;4.53;;;1.00;;
70505;SDS011;58032;49.820;6.274;2022-08-30T00:38:14;5.45;;;1.10;;
70505;SDS011;58032;49.820;6.274;2022-08-30T00:40:42;3.53;;;1.33;;
70505;SDS011;58032;49.820;6.274;2022-08-30T00:43:16;4.75;;;1.30;;
70505;SDS011;58032;49.820;6.274;2022-08-30T00:45:45;3.50;;;1.00;;
70505;SDS011;58032;49.820;6.274;2022-08-30T00:48:12;4.00;;;1.00;;
70505;SDS011;58032;49.820;6.274;2022-08-30T00:50:47;4.70;;;1.10;;
70505;SDS011;58032;49.820;6.274;2022-08-30T00:53:19;4.57;;;1.10;;
70505;SDS011;58032;49.820;6.274;2022-08-30T00:55:50;3.88;;;1.30;;
70505;SDS011;58032;49.820;6.274;2022-08-30T00:58:20;4.05;;;1.13;;
70505;SDS011;58032;49.820;6.274;2022-08-30T01:00:53;3.70;;;1.10;;
70505;SDS011;58032;49.820;6.274;2022-08-30T01:03:22;3.33;;;1.00;;
70505;SDS011;58032;49.820;6.274;2022-08-30T01:05:50;4.38;;;1.40;;
70505;SDS011;58032;49.820;6.274;2022-08-30T01:08:19;5.72;;;1.00;;
70505;SDS011;58032;49.820;6.274;2022-08-30T01:10:49;3.67;;;1.15;;
70505;SDS011;58032;49.820;6.274;2022-08-30T01:13:19;5.40;;;1.57;;
70505;SDS011;58032;49.820;6.274;2022-08-30T01:15:48;3.88;;;1.17;;
70505;SDS011;58032;49.820;6.274;2022-08-30T01:18:16;5.03;;;1.20;;
70505;SDS011;58032;49.820;6.274;2022-08-30T01:20:51;6.93;;;1.23;;
70505;SDS011;58032;49.820;6.274;2022-08-30T01:23:23;3.55;;;1.00;;
70505;SDS011;58032;49.820;6.274;2022-08-30T01:25:53;3.90;;;1.00;;
70505;SDS011;58032;49.820;6.274;2022-08-30T01:28:22;4.15;;;1.10;;
70505;SDS011;58032;49.820;6.274;2022-08-30T01:30:52;3.90;;;1.15;;
70505;SDS011;58032;49.820;6.274;2022-08-30T01:33:19;3.22;;;0.98;;
70505;SDS011;58032;49.820;6.274;2022-08-30T01:38:20;3.80;;;1.00;;
70505;SDS011;58032;49.820;6.274;2022-08-30T01:40:49;6.13;;;2.10;;
70505;SDS011;58032;49.820;6.274;2022-08-30T01:43:22;3.88;;;1.38;;
70505;SDS011;58032;49.820;6.274;2022-08-30T01:45:49;5.88;;;1.10;;
70505;SDS011;58032;49.820;6.274;2022-08-30T01:48:16;4.10;;;1.13;;
70505;SDS011;58032;49.820;6.274;2022-08-30T01:50:43;3.37;;;1.10;;
70505;SDS011;58032;49.820;6.274;2022-08-30T01:53:10;3.95;;;0.98;;
70505;SDS011;58032;49.820;6.274;2022-08-30T01:55:37;4.32;;;1.23;;
70505;SDS011;58032;49.820;6.274;2022-08-30T01:58:04;4.32;;;1.20;;
70505;SDS011;58032;49.820;6.274;2022-08-30T02:00:31;4.20;;;1.20;;
70505;SDS011;58032;49.820;6.274;2022-08-30T02:02:58;3.33;;;0.90;;
70505;SDS011;58032;49.820;6.274;2022-08-30T02:05:25;4.72;;;1.55;;
70505;SDS011;58032;49.820;6.274;2022-08-30T02:07:52;4.72;;;1.00;;
70505;SDS011;58032;49.820;6.274;2022-08-30T02:10:19;3.25;;;1.08;;
70505;SDS011;58032;49.820;6.274;2022-08-30T02:12:46;4.35;;;1.10;;
70505;SDS011;58032;49.820;6.274;2022-08-30T02:15:14;4.77;;;1.10;;
70505;SDS011;58032;49.820;6.274;2022-08-30T02:17:41;4.93;;;1.40;;
70505;SDS011;58032;49.820;6.274;2022-08-30T02:20:09;3.00;;;0.95;;
70505;SDS011;58032;49.820;6.274;2022-08-30T02:22:36;6.63;;;1.00;;
70505;SDS011;58032;49.820;6.274;2022-08-30T02:25:05;4.38;;;0.93;;
70505;SDS011;58032;49.820;6.274;2022-08-30T02:27:33;2.73;;;0.90;;
70505;SDS011;58032;49.820;6.274;2022-08-30T02:30:00;4.30;;;0.82;;
70505;SDS011;58032;49.820;6.274;2022-08-30T02:32:27;4.60;;;1.13;;
70505;SDS011;58032;49.820;6.274;2022-08-30T02:34:54;2.85;;;0.80;;
70505;SDS011;58032;49.820;6.274;2022-08-30T02:37:21;6.05;;;1.13;;
70505;SDS011;58032;49.820;6.274;2022-08-30T02:39:48;3.00;;;1.00;;
70505;SDS011;58032;49.820;6.274;2022-08-30T02:42:15;4.72;;;1.00;;
70505;SDS011;58032;49.820;6.274;2022-08-30T02:44:42;5.45;;;1.08;;
70505;SDS011;58032;49.820;6.274;2022-08-30T02:47:09;4.32;;;1.05;;
70505;SDS011;58032;49.820;6.274;2022-08-30T02:49:36;3.60;;;1.08;;
70505;SDS011;58032;49.820;6.274;2022-08-30T02:52:03;4.13;;;1.07;;
70505;SDS011;58032;49.820;6.274;2022-08-30T02:54:31;4.22;;;1.10;;
70505;SDS011;58032;49.820;6.274;2022-08-30T02:56:59;4.68;;;1.35;;
70505;SDS011;58032;49.820;6.274;2022-08-30T02:59:32;5.97;;;1.00;;
70505;SDS011;58032;49.820;6.274;2022-08-30T03:01:59;4.78;;;1.35;;
70505;SDS011;58032;49.820;6.274;2022-08-30T03:04:26;4.70;;;1.20;;
70505;SDS011;58032;49.820;6.274;2022-08-30T03:06:54;4.07;;;1.17;;
70505;SDS011;58032;49.820;6.274;2022-08-30T03:09:21;6.25;;;1.20;;
70505;SDS011;58032;49.820;6.274;2022-08-30T03:11:48;5.68;;;1.60;;
70505;SDS011;58032;49.820;6.274;2022-08-30T03:14:15;4.72;;;1.27;;
70505;SDS011;58032;49.820;6.274;2022-08-30T03:16:42;4.30;;;1.30;;
70505;SDS011;58032;49.820;6.274;2022-08-30T03:19:09;3.28;;;1.10;;
70505;SDS011;58032;49.820;6.274;2022-08-30T03:21:36;6.85;;;1.20;;
70505;SDS011;58032;49.820;6.274;2022-08-30T03:24:03;4.20;;;1.20;;
70505;SDS011;58032;49.820;6.274;2022-08-30T03:26:31;4.40;;;1.30;;
70505;SDS011;58032;49.820;6.274;2022-08-30T03:28:58;5.77;;;1.20;;
70505;SDS011;58032;49.820;6.274;2022-08-30T03:31:25;4.97;;;1.30;;
70505;SDS011;58032;49.820;6.274;2022-08-30T03:33:52;5.07;;;1.20;;
70505;SDS011;58032;49.820;6.274;2022-08-30T03:36:19;8.57;;;1.50;;
70505;SDS011;58032;49.820;6.274;2022-08-30T03:38:46;5.63;;;1.17;;
70505;SDS011;58032;49.820;6.274;2022-08-30T03:41:13;6.47;;;1.67;;
70505;SDS011;58032;49.820;6.274;2022-08-30T03:43:43;5.28;;;1.27;;
70505;SDS011;58032;49.820;6.274;2022-08-30T03:46:12;3.38;;;1.00;;
70505;SDS011;58032;49.820;6.274;2022-08-30T03:48:39;4.10;;;1.10;;
70505;SDS011;58032;49.820;6.274;2022-08-30T03:51:07;5.47;;;1.67;;
70505;SDS011;58032;49.820;6.274;2022-08-30T03:53:34;6.33;;;2.27;;
70505;SDS011;58032;49.820;6.274;2022-08-30T03:56:01;10.07;;;3.47;;
70505;SDS011;58032;49.820;6.274;2022-08-30T03:58:29;6.70;;;1.90;;
70505;SDS011;58032;49.820;6.274;2022-08-30T04:00:56;4.70;;;1.42;;
70505;SDS011;58032;49.820;6.274;2022-08-30T04:03:23;6.55;;;1.40;;
70505;SDS011;58032;49.820;6.274;2022-08-30T04:05:52;3.93;;;1.17;;
70505;SDS011;58032;49.820;6.274;2022-08-30T04:08:20;3.90;;;1.15;;
70505;SDS011;58032;49.820;6.274;2022-08-30T04:10:47;3.83;;;1.33;;
70505;SDS011;58032;49.820;6.274;2022-08-30T04:13:14;5.53;;;1.40;;
70505;SDS011;58032;49.820;6.274;2022-08-30T04:15:41;5.50;;;1.58;;
70505;SDS011;58032;49.820;6.274;2022-08-30T04:18:08;4.57;;;1.27;;
70505;SDS011;58032;49.820;6.274;2022-08-30T04:20:36;4.82;;;1.15;;
70505;SDS011;58032;49.820;6.274;2022-08-30T04:23:04;4.57;;;1.25;;
70505;SDS011;58032;49.820;6.274;2022-08-30T04:25:33;3.65;;;1.15;;
70505;SDS011;58032;49.820;6.274;2022-08-30T04:28:01;4.03;;;1.10;;
70505;SDS011;58032;49.820;6.274;2022-08-30T04:30:28;3.80;;;1.30;;
70505;SDS011;58032;49.820;6.274;2022-08-30T04:32:55;3.85;;;1.38;;
70505;SDS011;58032;49.820;6.274;2022-08-30T04:35:24;6.35;;;1.23;;
70505;SDS011;58032;49.820;6.274;2022-08-30T04:37:51;3.50;;;1.40;;
70505;SDS011;58032;49.820;6.274;2022-08-30T04:40:18;4.70;;;1.08;;
70505;SDS011;58032;49.820;6.274;2022-08-30T04:42:46;4.07;;;1.37;;
70505;SDS011;58032;49.820;6.274;2022-08-30T04:45:14;3.17;;;1.10;;
70505;SDS011;58032;49.820;6.274;2022-08-30T04:47:42;4.93;;;0.90;;
70505;SDS011;58032;49.820;6.274;2022-08-30T04:50:11;4.15;;;1.00;;
70505;SDS011;58032;49.820;6.274;2022-08-30T04:52:40;4.18;;;1.15;;
70505;SDS011;58032;49.820;6.274;2022-08-30T04:55:07;4.60;;;1.30;;
70505;SDS011;58032;49.820;6.274;2022-08-30T04:57:36;3.90;;;1.08;;
70505;SDS011;58032;49.820;6.274;2022-08-30T05:00:07;3.65;;;1.20;;
70505;SDS011;58032;49.820;6.274;2022-08-30T05:02:37;3.60;;;1.05;;
70505;SDS011;58032;49.820;6.274;2022-08-30T05:05:05;5.45;;;1.17;;
70505;SDS011;58032;49.820;6.274;2022-08-30T05:07:52;4.33;;;0.70;;
70505;SDS011;58032;49.820;6.274;2022-08-30T05:10:19;5.63;;;0.90;;
70505;SDS011;58032;49.820;6.274;2022-08-30T05:12:46;6.35;;;1.30;;
70505;SDS011;58032;49.820;6.274;2022-08-30T05:15:13;5.30;;;1.10;;
70505;SDS011;58032;49.820;6.274;2022-08-30T05:17:40;6.20;;;1.20;;
70505;SDS011;58032;49.820;6.274;2022-08-30T05:20:08;4.17;;;1.27;;
70505;SDS011;58032;49.820;6.274;2022-08-30T05:22:37;4.82;;;1.30;;
70505;SDS011;58032;49.820;6.274;2022-08-30T05:25:06;6.20;;;1.08;;
70505;SDS011;58032;49.820;6.274;2022-08-30T05:27:33;5.00;;;1.20;;
70505;SDS011;58032;49.820;6.274;2022-08-30T05:30:01;3.72;;;0.90;;
70505;SDS011;58032;49.820;6.274;2022-08-30T05:32:28;3.47;;;1.00;;
70505;SDS011;58032;49.820;6.274;2022-08-30T05:34:55;4.05;;;1.25;;
70505;SDS011;58032;49.820;6.274;2022-08-30T05:37:22;4.50;;;1.10;;
70505;SDS011;58032;49.820;6.274;2022-08-30T05:39:49;3.72;;;1.08;;
70505;SDS011;58032;49.820;6.274;2022-08-30T05:42:17;6.00;;;1.17;;
70505;SDS011;58032;49.820;6.274;2022-08-30T05:44:44;5.53;;;1.17;;
70505;SDS011;58032;49.820;6.274;2022-08-30T05:47:13;3.58;;;1.08;;
70505;SDS011;58032;49.820;6.274;2022-08-30T05:49:40;5.90;;;1.33;;
70505;SDS011;58032;49.820;6.274;2022-08-30T05:52:07;4.72;;;1.50;;
70505;SDS011;58032;49.820;6.274;2022-08-30T05:54:34;5.63;;;1.40;;
70505;SDS011;58032;49.820;6.274;2022-08-30T05:57:01;6.00;;;1.40;;
70505;SDS011;58032;49.820;6.274;2022-08-30T05:59:28;8.10;;;1.40;;
70505;SDS011;58032;49.820;6.274;2022-08-30T06:01:55;7.07;;;1.38;;
70505;SDS011;58032;49.820;6.274;2022-08-30T06:04:23;8.07;;;1.55;;
70505;SDS011;58032;49.820;6.274;2022-08-30T06:06:51;4.93;;;1.60;;
70505;SDS011;58032;49.820;6.274;2022-08-30T06:09:18;6.73;;;1.70;;
70505;SDS011;58032;49.820;6.274;2022-08-30T06:11:46;5.47;;;1.40;;
70505;SDS011;58032;49.820;6.274;2022-08-30T06:14:14;3.92;;;1.80;;
70505;SDS011;58032;49.820;6.274;2022-08-30T06:16:41;5.68;;;1.50;;
70505;SDS011;58032;49.820;6.274;2022-08-30T06:19:11;3.83;;;1.48;;
70505;SDS011;58032;49.820;6.274;2022-08-30T06:21:40;4.23;;;1.50;;
70505;SDS011;58032;49.820;6.274;2022-08-30T06:24:09;6.55;;;1.38;;
70505;SDS011;58032;49.820;6.274;2022-08-30T06:26:38;5.93;;;1.50;;
70505;SDS011;58032;49.820;6.274;2022-08-30T06:29:07;5.07;;;1.33;;
70505;SDS011;58032;49.820;6.274;2022-08-30T06:31:36;4.35;;;1.25;;
70505;SDS011;58032;49.820;6.274;2022-08-30T06:34:04;4.93;;;1.50;;
70505;SDS011;58032;49.820;6.274;2022-08-30T06:36:31;8.10;;;1.50;;
70505;SDS011;58032;49.820;6.274;2022-08-30T06:38:59;6.40;;;1.83;;
70505;SDS011;58032;49.820;6.274;2022-08-30T06:41:28;3.83;;;1.30;;
70505;SDS011;58032;49.820;6.274;2022-08-30T06:43:57;4.45;;;1.50;;
70505;SDS011;58032;49.820;6.274;2022-08-30T06:46:30;6.80;;;1.47;;
70505;SDS011;58032;49.820;6.274;2022-08-30T06:48:58;8.70;;;1.45;;
70505;SDS011;58032;49.820;6.274;2022-08-30T06:51:27;4.45;;;1.65;;
70505;SDS011;58032;49.820;6.274;2022-08-30T06:53:57;4.25;;;1.17;;
70505;SDS011;58032;49.820;6.274;2022-08-30T06:56:24;5.35;;;1.60;;
70505;SDS011;58032;49.820;6.274;2022-08-30T06:58:53;4.60;;;1.43;;
70505;SDS011;58032;49.820;6.274;2022-08-30T07:01:22;6.50;;;1.20;;
70505;SDS011;58032;49.820;6.274;2022-08-30T07:03:50;4.78;;;1.48;;
70505;SDS011;58032;49.820;6.274;2022-08-30T07:06:18;4.65;;;1.38;;
70505;SDS011;58032;49.820;6.274;2022-08-30T07:08:47;5.13;;;1.20;;
70505;SDS011;58032;49.820;6.274;2022-08-30T07:11:52;3.10;;;1.03;;
70505;SDS011;58032;49.820;6.274;2022-08-30T07:14:11;4.65;;;1.35;;
70505;SDS011;58032;49.820;6.274;2022-08-30T07:16:38;6.50;;;1.17;;
70505;SDS011;58032;49.820;6.274;2022-08-30T07:19:05;5.03;;;1.40;;
70505;SDS011;58032;49.820;6.274;2022-08-30T07:21:34;6.05;;;1.20;;
70505;SDS011;58032;49.820;6.274;2022-08-30T07:24:03;5.53;;;0.97;;
70505;SDS011;58032;49.820;6.274;2022-08-30T07:26:33;7.03;;;1.50;;
70505;SDS011;58032;49.820;6.274;2022-08-30T07:29:08;5.07;;;1.30;;
70505;SDS011;58032;49.820;6.274;2022-08-30T07:31:36;4.05;;;1.27;;
70505;SDS011;58032;49.820;6.274;2022-08-30T07:34:04;4.97;;;1.15;;
70505;SDS011;58032;49.820;6.274;2022-08-30T07:36:32;6.63;;;1.33;;
70505;SDS011;58032;49.820;6.274;2022-08-30T07:39:01;5.50;;;1.00;;
70505;SDS011;58032;49.820;6.274;2022-08-30T07:41:32;4.43;;;1.23;;
70505;SDS011;58032;49.820;6.274;2022-08-30T07:44:04;5.13;;;1.40;;
70505;SDS011;58032;49.820;6.274;2022-08-30T07:46:35;4.35;;;1.13;;
70505;SDS011;58032;49.820;6.274;2022-08-30T07:49:04;4.20;;;1.10;;
70505;SDS011;58032;49.820;6.274;2022-08-30T07:51:32;4.32;;;1.33;;
70505;SDS011;58032;49.820;6.274;2022-08-30T07:53:59;6.63;;;1.50;;
70505;SDS011;58032;49.820;6.274;2022-08-30T07:56:26;4.28;;;1.15;;
70505;SDS011;58032;49.820;6.274;2022-08-30T07:58:53;6.18;;;1.20;;
70505;SDS011;58032;49.820;6.274;2022-08-30T08:01:20;7.60;;;1.40;;
70505;SDS011;58032;49.820;6.274;2022-08-30T08:03:49;8.63;;;0.93;;
70505;SDS011;58032;49.820;6.274;2022-08-30T08:06:17;4.82;;;1.10;;
70505;SDS011;58032;49.820;6.274;2022-08-30T08:08:47;4.57;;;1.23;;
70505;SDS011;58032;49.820;6.274;2022-08-30T08:11:16;4.55;;;1.70;;
70505;SDS011;58032;49.820;6.274;2022-08-30T08:13:48;3.60;;;1.13;;
70505;SDS011;58032;49.820;6.274;2022-08-30T08:16:16;4.05;;;1.08;;
70505;SDS011;58032;49.820;6.274;2022-08-30T08:18:43;3.63;;;1.10;;
70505;SDS011;58032;49.820;6.274;2022-08-30T08:21:10;4.45;;;1.10;;
70505;SDS011;58032;49.820;6.274;2022-08-30T08:23:37;4.35;;;1.15;;
70505;SDS011;58032;49.820;6.274;2022-08-30T08:26:05;4.60;;;1.23;;
70505;SDS011;58032;49.820;6.274;2022-08-30T08:28:32;4.72;;;1.45;;
70505;SDS011;58032;49.820;6.274;2022-08-30T08:30:59;3.75;;;1.13;;
70505;SDS011;58032;49.820;6.274;2022-08-30T08:33:26;4.88;;;1.35;;
70505;SDS011;58032;49.820;6.274;2022-08-30T08:35:53;4.38;;;1.42;;
70505;SDS011;58032;49.820;6.274;2022-08-30T08:38:20;4.47;;;1.30;;
70505;SDS011;58032;49.820;6.274;2022-08-30T08:43:32;5.25;;;1.25;;
70505;SDS011;58032;49.820;6.274;2022-08-30T08:46:15;3.92;;;1.30;;
70505;SDS011;58032;49.820;6.274;2022-08-30T08:48:51;4.60;;;1.20;;
70505;SDS011;58032;49.820;6.274;2022-08-30T08:51:26;4.43;;;1.70;;
70505;SDS011;58032;49.820;6.274;2022-08-30T08:54:35;5.70;;;1.25;;
70505;SDS011;58032;49.820;6.274;2022-08-30T08:57:08;3.67;;;1.10;;
70505;SDS011;58032;49.820;6.274;2022-08-30T08:59:38;3.63;;;1.38;;
70505;SDS011;58032;49.820;6.274;2022-08-30T09:02:14;5.20;;;1.60;;
70505;SDS011;58032;49.820;6.274;2022-08-30T09:04:50;5.13;;;1.63;;
70505;SDS011;58032;49.820;6.274;2022-08-30T09:07:22;4.10;;;1.52;;
70505;SDS011;58032;49.820;6.274;2022-08-30T09:09:52;4.07;;;1.50;;
70505;SDS011;58032;49.820;6.274;2022-08-30T09:12:19;3.35;;;1.13;;
70505;SDS011;58032;49.820;6.274;2022-08-30T09:14:47;5.20;;;1.52;;
70505;SDS011;58032;49.820;6.274;2022-08-30T09:17:19;7.70;;;1.30;;
70505;SDS011;58032;49.820;6.274;2022-08-30T09:22:24;5.07;;;1.70;;
70505;SDS011;58032;49.820;6.274;2022-08-30T09:25:04;5.18;;;1.60;;
70505;SDS011;58032;49.820;6.274;2022-08-30T09:27:53;6.72;;;1.80;;
70505;SDS011;58032;49.820;6.274;2022-08-30T09:30:33;4.77;;;1.73;;
70505;SDS011;58032;49.820;6.274;2022-08-30T09:33:02;8.15;;;1.92;;
70505;SDS011;58032;49.820;6.274;2022-08-30T09:38:18;6.55;;;1.70;;
70505;SDS011;58032;49.820;6.274;2022-08-30T09:40:50;5.40;;;2.10;;
70505;SDS011;58032;49.820;6.274;2022-08-30T09:43:32;4.87;;;2.20;;
70505;SDS011;58032;49.820;6.274;2022-08-30T09:53:34;6.20;;;2.00;;
70505;SDS011;58032;49.820;6.274;2022-08-30T09:56:23;4.37;;;2.23;;
70505;SDS011;58032;49.820;6.274;2022-08-30T10:04:37;6.60;;;1.98;;
70505;SDS011;58032;49.820;6.274;2022-08-30T10:07:14;5.72;;;2.25;;
70505;SDS011;58032;49.820;6.274;2022-08-30T10:18:21;6.47;;;1.85;;
70505;SDS011;58032;49.820;6.274;2022-08-30T10:20:55;5.70;;;2.08;;
70505;SDS011;58032;49.820;6.274;2022-08-30T10:23:43;4.60;;;1.77;;
70505;SDS011;58032;49.820;6.274;2022-08-30T10:26:17;5.80;;;1.70;;
70505;SDS011;58032;49.820;6.274;2022-08-30T10:29:03;5.63;;;1.90;;
70505;SDS011;58032;49.820;6.274;2022-08-30T10:31:41;5.90;;;2.30;;
70505;SDS011;58032;49.820;6.274;2022-08-30T10:34:11;7.07;;;2.10;;
70505;SDS011;58032;49.820;6.274;2022-08-30T10:36:44;7.87;;;1.80;;
70505;SDS011;58032;49.820;6.274;2022-08-30T10:39:17;4.13;;;1.90;;
70505;SDS011;58032;49.820;6.274;2022-08-30T10:41:52;7.07;;;2.30;;
70505;SDS011;58032;49.820;6.274;2022-08-30T10:44:32;5.78;;;2.10;;
70505;SDS011;58032;49.820;6.274;2022-08-30T10:47:05;8.00;;;2.40;;
70505;SDS011;58032;49.820;6.274;2022-08-30T10:50:29;5.67;;;2.03;;
70505;SDS011;58032;49.820;6.274;2022-08-30T10:53:02;5.40;;;1.95;;
70505;SDS011;58032;49.820;6.274;2022-08-30T10:55:36;4.72;;;2.20;;
70505;SDS011;58032;49.820;6.274;2022-08-30T10:58:14;7.07;;;2.45;;
70505;SDS011;58032;49.820;6.274;2022-08-30T11:06:15;4.35;;;1.98;;
70505;SDS011;58032;49.820;6.274;2022-08-30T11:14:52;6.68;;;2.75;;
70505;SDS011;58032;49.820;6.274;2022-08-30T11:20:28;5.32;;;2.80;;
70505;SDS011;58032;49.820;6.274;2022-08-30T11:25:51;5.60;;;2.50;;
70505;SDS011;58032;49.820;6.274;2022-08-30T11:31:11;6.30;;;2.40;;
70505;SDS011;58032;49.820;6.274;2022-08-30T11:33:56;6.38;;;2.60;;
70505;SDS011;58032;49.820;6.274;2022-08-30T11:41:45;8.32;;;2.58;;
70505;SDS011;58032;49.820;6.274;2022-08-30T11:46:48;5.50;;;2.58;;
70505;SDS011;58032;49.820;6.274;2022-08-30T11:55:00;9.63;;;2.97;;
70505;SDS011;58032;49.820;6.274;2022-08-30T11:57:43;4.77;;;2.63;;
70505;SDS011;58032;49.820;6.274;2022-08-30T12:02:56;5.57;;;2.40;;
70505;SDS011;58032;49.820;6.274;2022-08-30T12:08:38;4.53;;;2.58;;
70505;SDS011;58032;49.820;6.274;2022-08-30T12:11:00;5.87;;;2.20;;
70505;SDS011;58032;49.820;6.274;2022-08-30T12:18:32;5.18;;;2.20;;
70505;SDS011;58032;49.820;6.274;2022-08-30T12:21:04;5.18;;;2.78;;
70505;SDS011;58032;49.820;6.274;2022-08-30T12:23:39;4.70;;;2.27;;
70505;SDS011;58032;49.820;6.274;2022-08-30T12:26:15;5.10;;;2.42;;
70505;SDS011;58032;49.820;6.274;2022-08-30T12:29:36;4.85;;;2.58;;
70505;SDS011;58032;49.820;6.274;2022-08-30T12:34:29;4.68;;;2.60;;
70505;SDS011;58032;49.820;6.274;2022-08-30T12:37:22;6.93;;;2.10;;
70505;SDS011;58032;49.820;6.274;2022-08-30T12:42:50;5.65;;;2.20;;
70505;SDS011;58032;49.820;6.274;2022-08-30T12:45:26;5.95;;;2.22;;
70505;SDS011;58032;49.820;6.274;2022-08-30T12:50:33;5.50;;;2.37;;
70505;SDS011;58032;49.820;6.274;2022-08-30T12:53:05;5.28;;;2.63;;
70505;SDS011;58032;49.820;6.274;2022-08-30T12:55:50;5.40;;;2.10;;
70505;SDS011;58032;49.820;6.274;2022-08-30T12:58:53;4.15;;;1.95;;
70505;SDS011;58032;49.820;6.274;2022-08-30T13:03:55;4.93;;;2.30;;
70505;SDS011;58032;49.820;6.274;2022-08-30T13:09:35;4.43;;;2.20;;
70505;SDS011;58032;49.820;6.274;2022-08-30T13:12:06;4.40;;;2.30;;
70505;SDS011;58032;49.820;6.274;2022-08-30T13:14:41;5.70;;;2.30;;
70505;SDS011;58032;49.820;6.274;2022-08-30T13:17:18;3.63;;;2.27;;
70505;SDS011;58032;49.820;6.274;2022-08-30T13:22:28;3.88;;;1.92;;
70505;SDS011;58032;49.820;6.274;2022-08-30T13:24:57;4.45;;;2.10;;
70505;SDS011;58032;49.820;6.274;2022-08-30T13:27:25;3.78;;;2.17;;
70505;SDS011;58032;49.820;6.274;2022-08-30T13:29:54;3.50;;;1.87;;
70505;SDS011;58032;49.820;6.274;2022-08-30T13:32:22;9.05;;;2.20;;
70505;SDS011;58032;49.820;6.274;2022-08-30T13:34:50;4.47;;;2.20;;
70505;SDS011;58032;49.820;6.274;2022-08-30T13:37:21;4.15;;;1.95;;
70505;SDS011;58032;49.820;6.274;2022-08-30T13:40:11;4.13;;;2.10;;
70505;SDS011;58032;49.820;6.274;2022-08-30T13:42:40;4.23;;;1.77;;
70505;SDS011;58032;49.820;6.274;2022-08-30T13:45:09;5.82;;;2.15;;
70505;SDS011;58032;49.820;6.274;2022-08-30T13:47:58;3.47;;;1.90;;
70505;SDS011;58032;49.820;6.274;2022-08-30T13:50:25;4.50;;;1.90;;
70505;SDS011;58032;49.820;6.274;2022-08-30T13:52:52;3.72;;;2.10;;
70505;SDS011;58032;49.820;6.274;2022-08-30T13:55:19;3.90;;;1.90;;
70505;SDS011;58032;49.820;6.274;2022-08-30T13:57:46;3.85;;;1.63;;
70505;SDS011;58032;49.820;6.274;2022-08-30T14:00:22;4.72;;;2.05;;
70505;SDS011;58032;49.820;6.274;2022-08-30T14:02:50;6.63;;;2.25;;
70505;SDS011;58032;49.820;6.274;2022-08-30T14:05:22;3.75;;;1.90;;
70505;SDS011;58032;49.820;6.274;2022-08-30T14:08:13;6.25;;;1.98;;
70505;SDS011;58032;49.820;6.274;2022-08-30T14:11:02;4.70;;;2.00;;
70505;SDS011;58032;49.820;6.274;2022-08-30T14:13:29;4.32;;;2.30;;
70505;SDS011;58032;49.820;6.274;2022-08-30T14:15:58;3.25;;;1.92;;
70505;SDS011;58032;49.820;6.274;2022-08-30T14:18:46;4.93;;;2.22;;
70505;SDS011;58032;49.820;6.274;2022-08-30T14:21:13;4.40;;;1.95;;
70505;SDS011;58032;49.820;6.274;2022-08-30T14:23:40;4.07;;;2.30;;
70505;SDS011;58032;49.820;6.274;2022-08-30T14:26:14;6.20;;;2.22;;
70505;SDS011;58032;49.820;6.274;2022-08-30T14:28:45;3.92;;;1.92;;
70505;SDS011;58032;49.820;6.274;2022-08-30T14:31:12;6.72;;;2.13;;
70505;SDS011;58032;49.820;6.274;2022-08-30T14:33:40;5.72;;;2.33;;
70505;SDS011;58032;49.820;6.274;2022-08-30T14:36:08;3.93;;;2.10;;
70505;SDS011;58032;49.820;6.274;2022-08-30T14:38:38;4.22;;;2.03;;
70505;SDS011;58032;49.820;6.274;2022-08-30T14:41:05;6.53;;;1.98;;
70505;SDS011;58032;49.820;6.274;2022-08-30T14:43:32;4.45;;;2.42;;
70505;SDS011;58032;49.820;6.274;2022-08-30T14:46:00;4.15;;;2.47;;
70505;SDS011;58032;49.820;6.274;2022-08-30T14:48:27;5.47;;;2.60;;
70505;SDS011;58032;49.820;6.274;2022-08-30T14:50:54;4.57;;;2.30;;
70505;SDS011;58032;49.820;6.274;2022-08-30T14:53:21;5.45;;;2.38;;
70505;SDS011;58032;49.820;6.274;2022-08-30T14:55:48;4.65;;;2.25;;
70505;SDS011;58032;49.820;6.274;2022-08-30T14:58:15;4.82;;;2.30;;
70505;SDS011;58032;49.820;6.274;2022-08-30T15:00:48;5.27;;;2.50;;
70505;SDS011;58032;49.820;6.274;2022-08-30T15:03:31;4.15;;;2.60;;
70505;SDS011;58032;49.820;6.274;2022-08-30T15:06:00;4.88;;;2.20;;
70505;SDS011;58032;49.820;6.274;2022-08-30T15:08:32;4.97;;;2.58;;
70505;SDS011;58032;49.820;6.274;2022-08-30T15:11:04;3.88;;;2.25;;
70505;SDS011;58032;49.820;6.274;2022-08-30T15:13:43;4.20;;;2.30;;
70505;SDS011;58032;49.820;6.274;2022-08-30T15:16:14;4.22;;;2.50;;
70505;SDS011;58032;49.820;6.274;2022-08-30T15:18:45;5.30;;;2.22;;
70505;SDS011;58032;49.820;6.274;2022-08-30T15:21:20;3.67;;;2.00;;
70505;SDS011;58032;49.820;6.274;2022-08-30T15:23:51;4.03;;;2.15;;
70505;SDS011;58032;49.820;6.274;2022-08-30T15:26:19;5.93;;;2.03;;
70505;SDS011;58032;49.820;6.274;2022-08-30T15:28:48;5.50;;;2.45;;
70505;SDS011;58032;49.820;6.274;2022-08-30T15:31:22;5.10;;;2.30;;
70505;SDS011;58032;49.820;6.274;2022-08-30T15:33:54;5.20;;;2.63;;
70505;SDS011;58032;49.820;6.274;2022-08-30T15:36:23;3.50;;;1.90;;
70505;SDS011;58032;49.820;6.274;2022-08-30T15:38:54;5.93;;;2.20;;
70505;SDS011;58032;49.820;6.274;2022-08-30T15:41:22;5.30;;;2.45;;
70505;SDS011;58032;49.820;6.274;2022-08-30T15:43:49;4.60;;;2.13;;
70505;SDS011;58032;49.820;6.274;2022-08-30T15:48:50;6.00;;;2.40;;
70505;SDS011;58032;49.820;6.274;2022-08-30T15:51:22;5.70;;;2.43;;
70505;SDS011;58032;49.820;6.274;2022-08-30T15:53:51;3.83;;;2.10;;
70505;SDS011;58032;49.820;6.274;2022-08-30T15:56:19;7.47;;;2.13;;
70505;SDS011;58032;49.820;6.274;2022-08-30T15:58:52;7.00;;;2.10;;
70505;SDS011;58032;49.820;6.274;2022-08-30T16:01:21;5.00;;;2.30;;
70505;SDS011;58032;49.820;6.274;2022-08-30T16:03:49;3.97;;;2.13;;
70505;SDS011;58032;49.820;6.274;2022-08-30T16:06:18;5.90;;;2.25;;
70505;SDS011;58032;49.820;6.274;2022-08-30T16:08:51;7.30;;;1.83;;
70505;SDS011;58032;49.820;6.274;2022-08-30T16:11:20;5.13;;;2.47;;
70505;SDS011;58032;49.820;6.274;2022-08-30T16:13:55;9.25;;;2.40;;
70505;SDS011;58032;49.820;6.274;2022-08-30T16:16:29;6.87;;;2.30;;
70505;SDS011;58032;49.820;6.274;2022-08-30T16:19:00;5.35;;;1.98;;
70505;SDS011;58032;49.820;6.274;2022-08-30T16:21:33;3.50;;;1.92;;
70505;SDS011;58032;49.820;6.274;2022-08-30T16:24:04;3.75;;;2.00;;
70505;SDS011;58032;49.820;6.274;2022-08-30T16:26:34;5.00;;;2.60;;
70505;SDS011;58032;49.820;6.274;2022-08-30T16:29:03;6.37;;;2.20;;
70505;SDS011;58032;49.820;6.274;2022-08-30T16:31:35;6.88;;;2.40;;
70505;SDS011;58032;49.820;6.274;2022-08-30T16:34:03;4.15;;;2.17;;
70505;SDS011;58032;49.820;6.274;2022-08-30T16:36:31;5.88;;;2.10;;
70505;SDS011;58032;49.820;6.274;2022-08-30T16:39:00;4.68;;;2.25;;
70505;SDS011;58032;49.820;6.274;2022-08-30T16:41:29;6.83;;;2.00;;
70505;SDS011;58032;49.820;6.274;2022-08-30T16:43:56;5.15;;;2.42;;